Time;durP1;ratioP1;P1;durP2;ratioP2;P2;SDS_P1;SDS_P2;PMS_P1;PMS_P2;Temp;Humidity;BMP_temperature;BMP_pressure;BME280_temperature;BME280_humidity;BME280_pressure;Samples;Min_cycle;Max_cycle;Signal;HPM_P1;HPM_P2
2023/11/18 00:01:08;;;;;;;8.48;6.93;;;;;;;;;;6131127;23;20024;-85
2023/11/18 00:03:37;;;;;;;7.15;6.28;;;;;;;;;;6155909;23;20330;-84
2023/11/18 00:06:07;;;;;;;9.38;6.18;;;;;;;;;;6156929;23;20021;-84
2023/11/18 00:08:35;;;;;;;9.10;6.78;;;;;;;;;;6132644;23;20020;-84
2023/11/18 00:11:03;;;;;;;7.90;6.38;;;;;;;;;;6157102;23;20017;-84
2023/11/18 00:13:33;;;;;;;9.57;6.25;;;;;;;;;;6157682;23;20031;-84
2023/11/18 00:16:02;;;;;;;11.05;6.72;;;;;;;;;;6156586;23;20044;-84
2023/11/18 00:18:32;;;;;;;7.50;5.95;;;;;;;;;;6131973;23;20021;-84
2023/11/18 00:21:01;;;;;;;6.78;5.75;;;;;;;;;;6131447;23;20480;-84
2023/11/18 00:23:29;;;;;;;7.70;7.00;;;;;;;;;;6132965;23;20024;-84
2023/11/18 00:25:58;;;;;;;8.27;7.47;;;;;;;;;;6183101;23;20492;-84
2023/11/18 00:28:25;;;;;;;8.80;7.28;;;;;;;;;;6157107;23;20024;-84
2023/11/18 00:30:53;;;;;;;7.68;6.93;;;;;;;;;;6154605;23;20028;-84
2023/11/18 00:33:25;;;;;;;8.48;7.65;;;;;;;;;;6166857;23;20020;-84
2023/11/18 00:35:54;;;;;;;8.18;6.57;;;;;;;;;;6132228;23;20379;-84
2023/11/18 00:38:25;;;;;;;8.13;6.82;;;;;;;;;;6158358;23;20013;-84
2023/11/18 00:40:54;;;;;;;7.80;7.07;;;;;;;;;;6160584;23;20037;-84
2023/11/18 00:43:24;;;;;;;11.43;8.23;;;;;;;;;;6156572;23;20434;-84
2023/11/18 00:45:52;;;;;;;9.57;8.15;;;;;;;;;;6170264;23;20012;-84
2023/11/18 00:48:21;;;;;;;10.35;8.95;;;;;;;;;;6161405;23;20024;-84
2023/11/18 00:50:51;;;;;;;10.05;8.00;;;;;;;;;;6161028;23;20028;-84
2023/11/18 00:53:20;;;;;;;9.43;8.07;;;;;;;;;;6162062;23;20027;-84
2023/11/18 00:55:51;;;;;;;10.20;8.63;;;;;;;;;;6161529;23;20028;-84
2023/11/18 00:58:21;;;;;;;11.10;8.68;;;;;;;;;;6197002;23;20019;-84
2023/11/18 01:00:51;;;;;;;10.65;8.30;;;;;;;;;;6159140;23;20023;-84
2023/11/18 01:03:18;;;;;;;10.55;8.48;;;;;;;;;;6186415;23;20013;-84
2023/11/18 01:05:48;;;;;;;9.52;8.27;;;;;;;;;;6185470;23;20040;-84
2023/11/18 01:08:18;;;;;;;10.15;7.97;;;;;;;;;;6213008;23;20012;-84
2023/11/18 01:10:45;;;;;;;7.80;7.10;;;;;;;;;;6161591;23;20031;-84
2023/11/18 01:13:14;;;;;;;8.00;7.03;;;;;;;;;;6161258;23;20345;-84
2023/11/18 01:15:41;;;;;;;11.00;8.05;;;;;;;;;;6194017;23;20012;-84
2023/11/18 01:18:13;;;;;;;8.30;6.32;;;;;;;;;;6161617;23;20917;-84
2023/11/18 01:20:41;;;;;;;9.05;8.07;;;;;;;;;;6187210;23;20019;-84
2023/11/18 01:23:08;;;;;;;9.80;8.13;;;;;;;;;;6161141;23;20016;-84
2023/11/18 01:25:36;;;;;;;10.38;6.90;;;;;;;;;;6213109;23;20016;-84
2023/11/18 01:28:05;;;;;;;10.18;9.13;;;;;;;;;;6161500;23;20024;-84
2023/11/18 01:30:34;;;;;;;8.43;7.53;;;;;;;;;;6160904;23;20017;-84
2023/11/18 01:33:01;;;;;;;7.18;6.47;;;;;;;;;;6160261;23;20012;-84
2023/11/18 01:35:31;;;;;;;10.15;7.90;;;;;;;;;;6161801;23;20017;-84
2023/11/18 01:37:58;;;;;;;10.40;7.82;;;;;;;;;;6160544;23;20017;-84
2023/11/18 01:40:30;;;;;;;8.45;7.13;;;;;;;;;;6191979;23;20017;-84
2023/11/18 01:42:58;;;;;;;9.23;8.05;;;;;;;;;;6185628;23;20028;-84
2023/11/18 01:45:28;;;;;;;10.93;8.05;;;;;;;;;;6160410;23;20023;-84
2023/11/18 01:47:59;;;;;;;9.35;7.50;;;;;;;;;;6160249;23;20039;-84
2023/11/18 01:50:29;;;;;;;8.25;7.25;;;;;;;;;;6161382;23;20021;-84
2023/11/18 01:53:00;;;;;;;9.93;6.55;;;;;;;;;;6213125;23;20035;-84
2023/11/18 01:55:28;;;;;;;11.30;8.25;;;;;;;;;;6185885;23;20012;-84
2023/11/18 01:57:57;;;;;;;9.93;7.88;;;;;;;;;;6160538;23;20372;-84
2023/11/18 02:00:25;;;;;;;9.32;8.18;;;;;;;;;;6185789;23;20366;-84
2023/11/18 02:02:55;;;;;;;8.55;7.22;;;;;;;;;;6160449;23;20360;-84
2023/11/18 02:05:23;;;;;;;10.35;8.38;;;;;;;;;;6185490;23;20013;-84
2023/11/18 02:07:53;;;;;;;11.50;8.13;;;;;;;;;;6161829;23;20025;-84
2023/11/18 02:10:20;;;;;;;10.98;9.10;;;;;;;;;;6160654;23;20021;-84
2023/11/18 02:12:57;;;;;;;9.13;7.28;;;;;;;;;;6185739;23;20468;-84
2023/11/18 02:15:26;;;;;;;11.20;9.05;;;;;;;;;;6159426;23;20476;-84
2023/11/18 02:17:56;;;;;;;10.85;7.93;;;;;;;;;;6195103;23;20016;-84
2023/11/18 02:20:27;;;;;;;12.02;9.52;;;;;;;;;;6160985;23;20036;-84
2023/11/18 02:22:56;;;;;;;11.23;9.10;;;;;;;;;;6196281;23;20009;-84
2023/11/18 02:25:28;;;;;;;11.45;9.25;;;;;;;;;;6160125;23;20021;-84
2023/11/18 02:27:57;;;;;;;12.90;11.25;;;;;;;;;;6161049;23;20361;-84
2023/11/18 02:30:30;;;;;;;11.18;8.82;;;;;;;;;;6159897;23;20021;-84
2023/11/18 02:33:02;;;;;;;10.88;9.57;;;;;;;;;;6159903;23;20013;-84
2023/11/18 02:35:37;;;;;;;10.27;8.10;;;;;;;;;;6196290;23;20020;-84
2023/11/18 02:38:07;;;;;;;10.95;9.52;;;;;;;;;;6185156;23;20050;-84
2023/11/18 02:40:39;;;;;;;10.52;8.18;;;;;;;;;;6180945;23;20013;-83
2023/11/18 02:43:10;;;;;;;13.07;9.60;;;;;;;;;;6162090;23;20017;-82
2023/11/18 02:45:41;;;;;;;10.85;9.75;;;;;;;;;;6137434;23;20021;-82
2023/11/18 02:48:10;;;;;;;9.70;7.40;;;;;;;;;;6139419;23;20025;-82
2023/11/18 02:50:41;;;;;;;10.05;7.68;;;;;;;;;;6167872;23;20028;-82
2023/11/18 02:53:10;;;;;;;9.40;7.65;;;;;;;;;;6141059;23;20031;-82
2023/11/18 02:55:40;;;;;;;10.52;7.70;;;;;;;;;;6140587;23;20021;-82
2023/11/18 02:58:09;;;;;;;11.00;7.35;;;;;;;;;;6165715;23;20016;-82
2023/11/18 03:00:38;;;;;;;13.27;8.48;;;;;;;;;;6165695;23;20021;-82
2023/11/18 03:03:05;;;;;;;11.23;7.88;;;;;;;;;;6164744;23;20446;-82
2023/11/18 03:05:36;;;;;;;12.95;8.00;;;;;;;;;;6164357;23;20027;-82
2023/11/18 03:08:05;;;;;;;11.50;8.30;;;;;;;;;;6139746;23;20021;-82
2023/11/18 03:10:34;;;;;;;12.18;8.05;;;;;;;;;;6140834;23;20035;-82
2023/11/18 03:13:04;;;;;;;8.73;7.72;;;;;;;;;;6140726;23;20031;-82
2023/11/18 03:15:33;;;;;;;9.82;6.90;;;;;;;;;;6139605;23;20024;-82
2023/11/18 03:18:00;;;;;;;9.73;7.82;;;;;;;;;;6164936;23;20024;-82
2023/11/18 03:20:28;;;;;;;10.48;7.43;;;;;;;;;;6140843;23;20024;-82
2023/11/18 03:22:56;;;;;;;8.45;7.10;;;;;;;;;;6138791;23;20028;-82
2023/11/18 03:25:23;;;;;;;10.50;8.25;;;;;;;;;;6170593;23;20401;-82
2023/11/18 03:27:50;;;;;;;10.23;7.78;;;;;;;;;;6161744;23;20357;-82
2023/11/18 03:30:18;;;;;;;10.45;8.02;;;;;;;;;;6136070;23;20021;-82
2023/11/18 03:32:46;;;;;;;13.95;8.45;;;;;;;;;;6139745;23;20021;-82
2023/11/18 03:35:14;;;;;;;14.32;8.25;;;;;;;;;;6164410;23;20017;-82
2023/11/18 03:37:42;;;;;;;12.55;9.18;;;;;;;;;;6139967;23;20021;-82
2023/11/18 03:40:11;;;;;;;14.45;10.55;;;;;;;;;;6140087;23;20020;-82
2023/11/18 03:42:38;;;;;;;16.48;9.57;;;;;;;;;;6139250;23;20027;-82
2023/11/18 03:45:10;;;;;;;14.02;9.98;;;;;;;;;;6163519;23;20425;-82
2023/11/18 03:47:37;;;;;;;13.73;9.93;;;;;;;;;;6140474;23;20021;-82
2023/11/18 03:50:08;;;;;;;16.98;9.77;;;;;;;;;;6139673;23;20457;-82
2023/11/18 03:52:37;;;;;;;15.05;11.15;;;;;;;;;;6139857;23;20025;-82
2023/11/18 03:55:08;;;;;;;17.90;10.65;;;;;;;;;;6173668;23;20028;-82
2023/11/18 03:57:36;;;;;;;14.98;11.05;;;;;;;;;;6164719;23;20023;-82
2023/11/18 04:00:03;;;;;;;11.60;9.73;;;;;;;;;;6164073;23;20017;-82
2023/11/18 04:02:39;;;;;;;13.52;10.65;;;;;;;;;;6201039;23;20023;-82
2023/11/18 04:05:10;;;;;;;16.90;10.63;;;;;;;;;;6136239;23;20023;-82
2023/11/18 04:07:37;;;;;;;15.85;11.70;;;;;;;;;;6137039;23;20017;-82
2023/11/18 04:10:06;;;;;;;15.35;12.00;;;;;;;;;;6138239;23;20021;-82
2023/11/18 04:12:35;;;;;;;12.15;9.23;;;;;;;;;;6138053;23;20028;-82
2023/11/18 04:15:04;;;;;;;13.32;9.18;;;;;;;;;;6134389;23;20476;-82
2023/11/18 04:17:31;;;;;;;11.32;8.82;;;;;;;;;;6164910;23;20027;-82
2023/11/18 04:20:04;;;;;;;11.70;10.07;;;;;;;;;;6139396;23;20025;-82
2023/11/18 04:22:32;;;;;;;12.20;8.80;;;;;;;;;;6165342;23;20016;-82
2023/11/18 04:24:59;;;;;;;16.95;9.27;;;;;;;;;;6163818;23;20013;-82
2023/11/18 04:27:27;;;;;;;11.13;9.50;;;;;;;;;;6139242;23;20021;-82
2023/11/18 04:29:54;;;;;;;14.43;9.68;;;;;;;;;;6140554;23;20017;-82
2023/11/18 04:32:23;;;;;;;10.25;8.57;;;;;;;;;;6190166;23;20537;-82
2023/11/18 04:34:51;;;;;;;11.75;8.70;;;;;;;;;;6139599;23;20017;-82
2023/11/18 04:37:21;;;;;;;11.13;9.40;;;;;;;;;;6140005;23;20036;-82
2023/11/18 04:39:51;;;;;;;16.35;10.18;;;;;;;;;;6139480;23;20555;-82
2023/11/18 04:42:21;;;;;;;13.60;9.77;;;;;;;;;;6174650;23;20480;-82
2023/11/18 04:44:49;;;;;;;13.38;9.30;;;;;;;;;;6164820;23;20017;-82
2023/11/18 04:47:18;;;;;;;15.68;11.18;;;;;;;;;;6139998;23;20025;-82
2023/11/18 04:49:47;;;;;;;12.63;10.05;;;;;;;;;;6140537;23;20017;-82
2023/11/18 04:52:15;;;;;;;14.57;10.93;;;;;;;;;;6138684;23;20020;-82
2023/11/18 04:54:42;;;;;;;20.20;10.75;;;;;;;;;;6162921;23;20023;-82
2023/11/18 04:57:11;;;;;;;14.30;9.93;;;;;;;;;;6138215;23;20462;-82
2023/11/18 04:59:40;;;;;;;13.05;8.85;;;;;;;;;;6164234;23;20076;-82
2023/11/18 05:02:07;;;;;;;12.23;9.90;;;;;;;;;;6172420;23;20017;-82
2023/11/18 05:04:35;;;;;;;14.32;9.60;;;;;;;;;;6138052;23;20013;-82
2023/11/18 05:07:06;;;;;;;11.27;9.40;;;;;;;;;;6137826;23;20029;-82
2023/11/18 05:09:35;;;;;;;14.40;11.68;;;;;;;;;;6163607;23;20017;-82
2023/11/18 05:12:06;;;;;;;13.27;9.50;;;;;;;;;;6162982;23;20017;-82
2023/11/18 05:14:35;;;;;;;13.15;9.60;;;;;;;;;;6162776;23;20029;-82
2023/11/18 05:17:04;;;;;;;10.27;9.18;;;;;;;;;;6198994;23;20031;-82
2023/11/18 05:19:34;;;;;;;13.55;10.68;;;;;;;;;;6163848;23;20331;-82
2023/11/18 05:22:01;;;;;;;12.68;8.15;;;;;;;;;;6162211;23;20021;-82
2023/11/18 05:24:28;;;;;;;9.18;6.97;;;;;;;;;;6163878;23;20017;-82
2023/11/18 05:26:56;;;;;;;13.20;8.55;;;;;;;;;;6137910;23;20031;-82
2023/11/18 05:29:23;;;;;;;10.65;7.25;;;;;;;;;;6172790;23;20017;-82
2023/11/18 05:31:55;;;;;;;12.32;10.07;;;;;;;;;;6161559;23;20027;-82
2023/11/18 05:34:22;;;;;;;11.15;8.43;;;;;;;;;;6164674;23;20013;-82
2023/11/18 05:36:54;;;;;;;12.13;9.30;;;;;;;;;;6162448;23;20013;-82
2023/11/18 05:39:24;;;;;;;10.15;8.55;;;;;;;;;;6137996;23;20021;-82
2023/11/18 05:41:51;;;;;;;13.70;9.70;;;;;;;;;;6180750;23;20013;-82
2023/11/18 05:44:29;;;;;;;10.77;7.63;;;;;;;;;;6161299;23;20020;-82
2023/11/18 05:46:57;;;;;;;14.85;9.25;;;;;;;;;;6185246;23;20719;-82
2023/11/18 05:49:27;;;;;;;11.68;8.65;;;;;;;;;;6186568;23;20017;-82
2023/11/18 05:51:54;;;;;;;12.50;8.85;;;;;;;;;;6187432;23;20020;-82
2023/11/18 05:54:22;;;;;;;13.73;8.68;;;;;;;;;;6161463;23;20013;-82
2023/11/18 05:56:51;;;;;;;10.13;7.80;;;;;;;;;;6138170;23;20027;-82
2023/11/18 05:59:18;;;;;;;10.10;7.15;;;;;;;;;;6161828;23;20035;-82
2023/11/18 06:01:48;;;;;;;12.48;7.63;;;;;;;;;;6162303;23;20028;-82
2023/11/18 06:04:17;;;;;;;11.70;8.40;;;;;;;;;;6161926;23;20028;-82
2023/11/18 06:06:47;;;;;;;15.10;8.25;;;;;;;;;;6198050;23;20028;-82
2023/11/18 06:09:20;;;;;;;9.93;8.38;;;;;;;;;;6161769;23;20025;-82
2023/11/18 06:11:49;;;;;;;8.57;7.07;;;;;;;;;;6161332;23;20032;-82
2023/11/18 06:14:17;;;;;;;8.23;6.78;;;;;;;;;;6187361;23;20496;-82
2023/11/18 06:16:50;;;;;;;9.82;7.45;;;;;;;;;;6159903;23;20025;-82
2023/11/18 06:19:22;;;;;;;11.43;6.97;;;;;;;;;;6163886;23;20028;-82
2023/11/18 06:21:51;;;;;;;9.90;7.70;;;;;;;;;;6190900;23;20478;-82
2023/11/18 06:24:21;;;;;;;8.30;6.95;;;;;;;;;;6189677;23;20319;-81
2023/11/18 06:26:53;;;;;;;10.73;8.32;;;;;;;;;;6163976;23;20025;-82
2023/11/18 06:29:21;;;;;;;10.18;8.45;;;;;;;;;;6164169;23;20021;-82
2023/11/18 06:31:50;;;;;;;15.13;9.95;;;;;;;;;;6188097;23;20028;-82
2023/11/18 06:34:18;;;;;;;13.32;9.48;;;;;;;;;;6164758;23;20024;-82
2023/11/18 06:36:46;;;;;;;12.88;9.85;;;;;;;;;;6163013;23;20020;-80
2023/11/18 06:39:13;;;;;;;12.45;9.65;;;;;;;;;;6189733;23;20335;-80
2023/11/18 06:41:48;;;;;;;11.52;9.95;;;;;;;;;;6164245;23;20027;-80
2023/11/18 06:44:18;;;;;;;14.18;9.40;;;;;;;;;;6198334;23;20021;-81
2023/11/18 06:46:45;;;;;;;13.35;10.23;;;;;;;;;;6189930;23;20816;-80
2023/11/18 06:49:15;;;;;;;15.20;11.35;;;;;;;;;;6162067;23;20021;-80
2023/11/18 06:51:48;;;;;;;13.30;10.48;;;;;;;;;;6189957;23;20024;-80
2023/11/18 06:54:17;;;;;;;15.48;12.25;;;;;;;;;;6188349;23;20032;-80
2023/11/18 06:56:44;;;;;;;12.88;10.05;;;;;;;;;;6198405;23;20013;-80
2023/11/18 06:59:16;;;;;;;14.15;10.45;;;;;;;;;;6189421;23;20036;-80
2023/11/18 07:01:44;;;;;;;14.63;10.45;;;;;;;;;;6190306;23;20017;-80
2023/11/18 07:04:15;;;;;;;13.38;10.80;;;;;;;;;;6189997;23;20032;-81
2023/11/18 07:06:44;;;;;;;13.10;9.93;;;;;;;;;;6162778;23;20023;-83
2023/11/18 07:09:16;;;;;;;13.18;10.20;;;;;;;;;;6187952;23;20064;-80
2023/11/18 07:11:44;;;;;;;15.27;10.88;;;;;;;;;;6163635;23;20025;-80
2023/11/18 07:14:12;;;;;;;15.43;11.75;;;;;;;;;;6187728;23;20496;-80
2023/11/18 07:16:40;;;;;;;14.20;10.38;;;;;;;;;;6161302;23;20021;-80
2023/11/18 07:19:07;;;;;;;16.90;10.82;;;;;;;;;;6189207;23;20017;-80
2023/11/18 07:21:37;;;;;;;14.40;10.43;;;;;;;;;;6162691;23;20024;-80
2023/11/18 07:24:09;;;;;;;20.08;11.38;;;;;;;;;;6161843;23;20028;-80
2023/11/18 07:26:44;;;;;;;14.27;11.38;;;;;;;;;;6199231;23;20453;-80
2023/11/18 07:29:11;;;;;;;19.45;12.32;;;;;;;;;;6161789;23;20029;-80
2023/11/18 07:31:38;;;;;;;16.83;11.55;;;;;;;;;;6162470;23;20496;-80
2023/11/18 07:34:08;;;;;;;17.05;12.05;;;;;;;;;;6185838;23;20021;-80
2023/11/18 07:36:35;;;;;;;13.40;10.98;;;;;;;;;;6162551;23;20023;-80
2023/11/18 07:39:10;;;;;;;12.85;10.00;;;;;;;;;;6188659;23;20027;-80
2023/11/18 07:41:46;;;;;;;15.60;11.38;;;;;;;;;;6190632;23;20020;-80
2023/11/18 07:44:16;;;;;;;13.95;10.20;;;;;;;;;;6162955;23;20461;-80
2023/11/18 07:46:46;;;;;;;13.90;9.55;;;;;;;;;;6159541;23;20021;-80
2023/11/18 07:49:13;;;;;;;14.90;10.27;;;;;;;;;;6186712;23;20923;-80
2023/11/18 07:51:41;;;;;;;15.45;11.52;;;;;;;;;;6137405;23;20021;-80
2023/11/18 07:54:09;;;;;;;18.92;12.02;;;;;;;;;;6181096;23;20017;-81
2023/11/18 07:56:39;;;;;;;14.85;11.85;;;;;;;;;;6151606;23;20020;-82
2023/11/18 07:59:10;;;;;;;16.05;12.40;;;;;;;;;;6129575;23;20017;-81
2023/11/18 08:01:44;;;;;;;16.63;10.20;;;;;;;;;;6183124;23;20036;-81
2023/11/18 08:04:17;;;;;;;14.57;10.20;;;;;;;;;;6131820;23;20025;-80
2023/11/18 08:06:47;;;;;;;14.90;11.35;;;;;;;;;;6156646;23;20017;-81
2023/11/18 08:09:22;;;;;;;13.98;10.85;;;;;;;;;;6156632;23;20017;-81
2023/11/18 08:11:49;;;;;;;11.63;9.57;;;;;;;;;;6157062;23;20020;-81
2023/11/18 08:14:20;;;;;;;11.55;9.50;;;;;;;;;;6156143;23;20021;-80
2023/11/18 08:16:51;;;;;;;15.93;11.13;;;;;;;;;;6190411;23;20009;-79
2023/11/18 08:19:18;;;;;;;14.68;11.00;;;;;;;;;;6131098;23;20036;-79
2023/11/18 08:21:46;;;;;;;14.02;10.43;;;;;;;;;;6156407;23;20024;-79
2023/11/18 08:24:13;;;;;;;14.93;10.05;;;;;;;;;;6131298;23;20453;-79
2023/11/18 08:26:42;;;;;;;12.77;9.35;;;;;;;;;;6155031;23;20017;-80
2023/11/18 08:29:10;;;;;;;13.18;9.45;;;;;;;;;;6154715;23;20020;-80
2023/11/18 08:31:40;;;;;;;13.00;9.43;;;;;;;;;;6180939;23;20017;-80
2023/11/18 08:34:10;;;;;;;14.68;9.05;;;;;;;;;;6132275;23;20032;-79
2023/11/18 08:36:37;;;;;;;12.88;10.55;;;;;;;;;;6181354;23;20338;-79
2023/11/18 08:39:10;;;;;;;11.27;9.30;;;;;;;;;;6156359;23;20013;-80
2023/11/18 08:41:38;;;;;;;18.70;10.02;;;;;;;;;;6146249;23;20496;-79
2023/11/18 08:44:09;;;;;;;13.27;10.55;;;;;;;;;;6178140;23;20021;-79
2023/11/18 08:46:41;;;;;;;20.38;10.00;;;;;;;;;;6179379;23;20353;-79
2023/11/18 08:49:11;;;;;;;13.75;9.98;;;;;;;;;;6156030;23;20349;-79
2023/11/18 08:51:41;;;;;;;22.92;11.85;;;;;;;;;;6183665;23;20021;-80
2023/11/18 08:54:22;;;;;;;13.88;10.13;;;;;;;;;;6158961;23;20028;-80
2023/11/18 08:56:52;;;;;;;12.88;10.50;;;;;;;;;;6162057;23;20013;-80
2023/11/18 08:59:24;;;;;;;11.23;9.30;;;;;;;;;;6185740;23;20017;-80
2023/11/18 09:01:55;;;;;;;11.07;8.63;;;;;;;;;;6185040;23;20021;-79
2023/11/18 09:04:25;;;;;;;7.80;6.80;;;;;;;;;;6184222;23;20028;-79
2023/11/18 09:06:53;;;;;;;10.75;8.15;;;;;;;;;;6183017;23;20017;-79
2023/11/18 09:09:26;;;;;;;9.23;8.13;;;;;;;;;;6157663;23;20021;-79
2023/11/18 09:11:57;;;;;;;8.65;6.63;;;;;;;;;;6182507;23;20020;-79
2023/11/18 09:14:25;;;;;;;6.55;5.93;;;;;;;;;;6183465;23;20017;-79
2023/11/18 09:16:58;;;;;;;7.75;6.95;;;;;;;;;;6157868;23;20017;-79
2023/11/18 09:19:28;;;;;;;7.57;6.75;;;;;;;;;;6157353;23;20017;-79
2023/11/18 09:21:59;;;;;;;6.70;6.00;;;;;;;;;;6192365;23;20020;-79
2023/11/18 09:24:26;;;;;;;6.20;5.55;;;;;;;;;;6182178;23;20445;-79
2023/11/18 09:26:56;;;;;;;11.65;7.00;;;;;;;;;;6181489;23;20069;-80
2023/11/18 09:29:24;;;;;;;7.03;5.80;;;;;;;;;;6184465;23;20028;-80
2023/11/18 09:31:54;;;;;;;5.22;4.72;;;;;;;;;;6160517;23;20027;-80
2023/11/18 09:34:33;;;;;;;6.28;5.13;;;;;;;;;;6157296;23;20028;-80
2023/11/18 09:37:00;;;;;;;6.28;5.68;;;;;;;;;;6183700;23;20463;-80
2023/11/18 09:39:37;;;;;;;6.43;4.35;;;;;;;;;;6158131;23;20032;-80
2023/11/18 09:42:08;;;;;;;7.22;5.00;;;;;;;;;;6157912;23;20492;-80
2023/11/18 09:44:37;;;;;;;8.75;5.43;;;;;;;;;;6156736;23;20335;-80
2023/11/18 09:47:10;;;;;;;7.28;5.03;;;;;;;;;;6190412;23;20013;-80
2023/11/18 09:49:45;;;;;;;6.60;5.88;;;;;;;;;;6190344;23;20021;-80
2023/11/18 09:52:18;;;;;;;8.13;6.13;;;;;;;;;;6192967;23;20025;-80
2023/11/18 09:54:53;;;;;;;7.82;6.07;;;;;;;;;;6193388;23;20016;-80
2023/11/18 09:57:27;;;;;;;7.05;5.50;;;;;;;;;;6157193;23;20021;-80
2023/11/18 09:59:58;;;;;;;9.38;5.25;;;;;;;;;;6193067;23;20013;-80
2023/11/18 10:02:29;;;;;;;5.22;4.35;;;;;;;;;;6157709;23;20021;-80
2023/11/18 10:05:00;;;;;;;10.65;5.97;;;;;;;;;;6133639;23;20028;-80
2023/11/18 10:07:32;;;;;;;6.40;4.87;;;;;;;;;;6183092;23;20027;-80
2023/11/18 10:10:05;;;;;;;7.43;5.05;;;;;;;;;;6159143;23;20278;-80
2023/11/18 10:12:32;;;;;;;8.05;5.70;;;;;;;;;;6159365;23;20021;-80
2023/11/18 10:15:08;;;;;;;6.80;6.10;;;;;;;;;;6158440;23;20024;-80
2023/11/18 10:17:54;;;;;;;7.03;5.45;;;;;;;;;;6157835;23;20028;-80
2023/11/18 10:20:45;;;;;;;10.32;6.28;;;;;;;;;;6188370;23;20029;-80
2023/11/18 10:23:18;;;;;;;7.53;5.10;;;;;;;;;;6223361;23;20019;-80
2023/11/18 10:25:49;;;;;;;5.72;4.88;;;;;;;;;;6224860;23;20012;-80
2023/11/18 11:38:58;;;;;;;2.50;2.15;;;;;;;;;;6219092;22;20017;-83
2023/11/18 11:41:27;;;;;;;2.38;2.17;;;;;;;;;;6185889;23;20024;-84
2023/11/18 11:43:58;;;;;;;3.35;2.42;;;;;;;;;;6161625;23;20024;-84
2023/11/18 11:46:32;;;;;;;2.45;2.20;;;;;;;;;;6160523;23;20365;-85
2023/11/18 11:49:01;;;;;;;4.38;2.10;;;;;;;;;;6186528;23;20021;-84
2023/11/18 11:51:35;;;;;;;6.00;3.58;;;;;;;;;;6160602;23;20020;-84
2023/11/18 11:54:15;;;;;;;3.72;2.78;;;;;;;;;;6186138;23;20016;-84
2023/11/18 11:56:55;;;;;;;5.80;4.00;;;;;;;;;;6186272;23;20019;-85
2023/11/18 11:59:37;;;;;;;2.55;2.30;;;;;;;;;;6223046;23;20012;-85
2023/11/18 12:02:07;;;;;;;2.80;2.13;;;;;;;;;;6160677;23;20484;-85
2023/11/18 12:04:37;;;;;;;2.55;2.10;;;;;;;;;;6186314;23;20021;-85
2023/11/18 12:07:05;;;;;;;6.78;2.88;;;;;;;;;;6185077;23;20013;-85
2023/11/18 12:09:38;;;;;;;1.88;1.77;;;;;;;;;;6161410;23;20020;-85
2023/11/18 12:12:35;;;;;;;;;;;;;;;;;;;;;
2023/11/18 12:15:23;;;;;;;;;;;;;;;;;;;;;
2023/11/18 12:18:25;;;;;;;4.38;2.22;;;;;;;;;;6181320;23;20016;-86
2023/11/18 12:21:02;;;;;;;1.73;1.20;;;;;;;;;;6161776;23;20012;-85
2023/11/18 12:23:50;;;;;;;;;;;;;;;;;;6187475;23;20016;-85
2023/11/18 12:26:54;;;;;;;3.30;1.75;;;;;;;;;;6161742;23;19923;-85
2023/11/18 12:29:58;;;;;;;2.45;1.20;;;;;;;;;;6223410;23;20345;-85
2023/11/18 12:33:17;;;;;;;;;;;;;;;;;;;;;
2023/11/18 12:36:43;;;;;;;2.67;1.95;;;;;;;;;;6196650;23;20020;-84
2023/11/18 12:40:12;;;;;;;2.08;1.73;;;;;;;;;;6187226;23;20395;-85
2023/11/18 12:43:29;;;;;;;2.75;1.65;;;;;;;;;;6186981;23;20020;-85
2023/11/18 12:50:45;;;;;;;3.97;1.52;;;;;;;;;;6059269;23;20069;-84
2023/11/18 12:53:18;;;;;;;3.03;1.80;;;;;;;;;;6069170;23;20022;-85
2023/11/18 13:18:34;;;;;;;3.17;1.98;;;;;;;;;;6213212;22;20024;-84
2023/11/18 13:25:17;;;;;;;3.17;2.47;;;;;;;;;;6222360;23;20012;-85
2023/11/18 15:40:28;;;;;;;2.75;2.45;;;;;;;;;;6204687;22;20032;-83
2023/11/18 15:42:56;;;;;;;2.97;2.67;;;;;;;;;;6163122;23;20152;-85
2023/11/18 15:45:24;;;;;;;2.95;2.30;;;;;;;;;;6162338;23;20013;-85
2023/11/18 15:47:52;;;;;;;5.47;1.98;;;;;;;;;;6187552;23;20021;-85
2023/11/18 15:50:20;;;;;;;4.40;3.22;;;;;;;;;;6163904;23;20016;-85
2023/11/18 15:52:49;;;;;;;7.88;4.45;;;;;;;;;;6187007;23;20021;-85
2023/11/18 15:55:17;;;;;;;5.25;3.67;;;;;;;;;;6188093;23;20016;-85
2023/11/18 15:57:52;;;;;;;4.68;3.85;;;;;;;;;;6164544;23;20592;-84
2023/11/18 16:00:20;;;;;;;5.90;4.32;;;;;;;;;;6196314;23;20013;-84
2023/11/18 16:02:48;;;;;;;4.07;3.78;;;;;;;;;;6163809;23;20067;-84
2023/11/18 16:05:17;;;;;;;4.80;3.78;;;;;;;;;;6163643;23;20035;-84
2023/11/18 16:07:45;;;;;;;4.28;3.88;;;;;;;;;;6163943;23;20360;-84
2023/11/18 16:10:17;;;;;;;7.72;4.25;;;;;;;;;;6164043;23;20020;-85
2023/11/18 16:12:47;;;;;;;4.43;3.60;;;;;;;;;;6214951;23;20021;-85
2023/11/18 16:15:16;;;;;;;4.05;3.50;;;;;;;;;;6162261;23;20024;-85
2023/11/18 16:17:45;;;;;;;7.28;4.93;;;;;;;;;;6214841;23;20009;-85
2023/11/18 16:20:15;;;;;;;6.40;5.75;;;;;;;;;;6214730;23;20009;-85
2023/11/18 16:22:42;;;;;;;7.22;5.85;;;;;;;;;;6162947;23;20024;-85
2023/11/18 16:25:10;;;;;;;9.70;6.90;;;;;;;;;;6214526;23;20035;-85
2023/11/18 16:27:38;;;;;;;5.88;5.28;;;;;;;;;;6188244;22;20016;-83
2023/11/18 16:30:08;;;;;;;7.28;5.75;;;;;;;;;;6164122;23;20013;-82
2023/11/18 16:32:36;;;;;;;8.13;7.30;;;;;;;;;;6131856;23;20357;-82
2023/11/18 16:35:03;;;;;;;7.05;6.00;;;;;;;;;;6131600;23;20016;-83
2023/11/18 16:37:33;;;;;;;10.05;7.22;;;;;;;;;;6133131;23;20021;-82
2023/11/18 16:40:00;;;;;;;10.25;7.13;;;;;;;;;;6157332;23;20028;-82
2023/11/18 16:42:28;;;;;;;6.75;6.15;;;;;;;;;;6157555;23;20036;-82
2023/11/18 16:44:55;;;;;;;7.63;6.80;;;;;;;;;;6132530;23;20024;-82
2023/11/18 16:47:25;;;;;;;6.97;6.30;;;;;;;;;;6132160;23;20335;-82
2023/11/18 16:49:52;;;;;;;9.02;7.40;;;;;;;;;;6157369;23;20385;-82
2023/11/18 16:52:22;;;;;;;6.00;5.38;;;;;;;;;;6157697;23;20487;-81
2023/11/18 16:54:49;;;;;;;8.63;5.75;;;;;;;;;;6132202;23;20028;-81
2023/11/18 16:57:20;;;;;;;8.43;5.95;;;;;;;;;;6156955;23;20330;-81
2023/11/18 16:59:47;;;;;;;6.30;5.70;;;;;;;;;;6133905;23;20024;-81
2023/11/18 17:02:15;;;;;;;5.85;5.22;;;;;;;;;;6157074;23;20025;-81
2023/11/18 17:04:44;;;;;;;5.70;4.68;;;;;;;;;;6184876;23;20480;-81
2023/11/18 17:07:13;;;;;;;5.95;5.35;;;;;;;;;;6134361;23;20028;-81
2023/11/18 17:09:41;;;;;;;5.20;4.70;;;;;;;;;;6156604;23;20013;-81
2023/11/18 17:12:09;;;;;;;5.72;5.20;;;;;;;;;;6157865;23;20017;-81
2023/11/18 17:14:36;;;;;;;6.15;4.93;;;;;;;;;;6159407;23;20013;-80
2023/11/18 17:17:04;;;;;;;7.00;5.78;;;;;;;;;;6157823;23;20027;-81
2023/11/18 19:18:08;;;;;;;8.00;7.15;;;;;;;;;;5902118;23;20033;-81
2023/11/18 19:20:36;;;;;;;9.35;6.65;;;;;;;;;;6100820;23;20027;-81
2023/11/18 19:23:03;;;;;;;7.68;6.97;;;;;;;;;;6170360;23;20028;-81
2023/11/18 19:25:35;;;;;;;5.60;5.10;;;;;;;;;;6171097;23;20024;-81
2023/11/18 19:28:02;;;;;;;6.80;5.93;;;;;;;;;;6170043;23;20017;-81
2023/11/18 19:30:30;;;;;;;6.88;6.03;;;;;;;;;;6195840;23;20017;-82
2023/11/18 19:32:57;;;;;;;8.25;6.60;;;;;;;;;;6168797;23;20031;-81
2023/11/18 19:35:29;;;;;;;9.05;7.68;;;;;;;;;;6194660;23;20692;-81
2023/11/18 19:37:56;;;;;;;7.18;6.25;;;;;;;;;;6194764;23;20023;-81
2023/11/18 19:40:24;;;;;;;10.35;8.38;;;;;;;;;;6163680;23;20028;-81
2023/11/18 19:42:51;;;;;;;7.22;6.53;;;;;;;;;;6162898;23;20024;-81
2023/11/18 19:45:18;;;;;;;6.20;5.57;;;;;;;;;;6161976;23;20023;-81
2023/11/18 19:47:46;;;;;;;8.57;7.43;;;;;;;;;;6162930;23;20025;-82
2023/11/18 19:50:13;;;;;;;9.20;7.65;;;;;;;;;;6162722;23;20013;-83
2023/11/18 19:52:42;;;;;;;7.72;6.43;;;;;;;;;;6163434;23;20031;-82
2023/11/18 19:55:13;;;;;;;8.93;6.65;;;;;;;;;;6187232;23;20031;-81
2023/11/18 19:57:40;;;;;;;8.50;7.65;;;;;;;;;;6187653;23;20019;-83
2023/11/18 20:00:11;;;;;;;10.05;7.60;;;;;;;;;;6161587;23;20017;-83
2023/11/18 20:02:41;;;;;;;;;;;;;;;;;;6185606;23;20474;-82
2023/11/18 20:05:09;;;;;;;8.70;7.45;;;;;;;;;;6187319;23;19923;-82
2023/11/18 20:07:37;;;;;;;8.23;6.88;;;;;;;;;;6187789;23;20350;-82
2023/11/18 20:10:08;;;;;;;7.90;6.80;;;;;;;;;;6187355;23;20017;-82
2023/11/18 20:12:38;;;;;;;6.63;6.03;;;;;;;;;;6186162;23;20519;-82
2023/11/18 20:15:11;;;;;;;8.05;6.65;;;;;;;;;;6188099;23;20021;-82
2023/11/18 20:17:38;;;;;;;7.97;6.53;;;;;;;;;;6186597;23;20017;-82
2023/11/18 20:20:09;;;;;;;7.18;6.47;;;;;;;;;;6187184;23;20017;-82
2023/11/18 20:22:37;;;;;;;6.82;6.13;;;;;;;;;;6163295;23;20025;-82
2023/11/18 20:25:07;;;;;;;8.18;7.35;;;;;;;;;;6185301;23;20477;-82
2023/11/18 20:27:35;;;;;;;5.70;5.20;;;;;;;;;;6161112;23;20017;-82
2023/11/18 20:30:04;;;;;;;8.68;7.15;;;;;;;;;;6185263;23;20637;-82
2023/11/18 20:32:32;;;;;;;7.13;6.43;;;;;;;;;;6161184;23;20016;-82
2023/11/18 20:35:00;;;;;;;9.30;7.10;;;;;;;;;;6187206;23;20032;-82
2023/11/18 20:37:27;;;;;;;7.53;6.82;;;;;;;;;;6186231;23;20017;-83
2023/11/18 20:39:56;;;;;;;7.43;6.72;;;;;;;;;;6160426;23;20023;-82
2023/11/18 20:42:25;;;;;;;8.13;7.07;;;;;;;;;;6159123;23;20024;-82
2023/11/18 20:45:51;;;;;;;;;;;;;;;;;;;;;
2023/11/18 20:49:56;;;;;;;;;;;;;;;;;;;;;
2023/11/18 21:08:16;;;;;;;8.50;7.70;;;;;;;;;;5902829;24;20034;-83
2023/11/18 21:10:43;;;;;;;9.85;8.77;;;;;;;;;;6178840;23;20021;-82